Time;durP1;ratioP1;P1;durP2;ratioP2;P2;SDS_P1;SDS_P2;PMS_P1;PMS_P2;Temp;Humidity;BMP_temperature;BMP_pressure;BME280_temperature;BME280_humidity;BME280_pressure;Samples;Min_cycle;Max_cycle;Signal;HPM_P1;HPM_P2
2020/12/08 00:00:23;;;;;;;94.87;31.60;;;;;;;;;;4349246;33;20151;-86
2020/12/08 00:03:02;;;;;;;;;;;;;;;;;;;;;
2020/12/08 00:05:30;;;;;;;90.07;31.57;;;;;;;;;;4362140;33;20139;-87
2020/12/08 00:07:55;;;;;;;80.03;31.77;;;;;;;;;;4361744;33;20131;-87
2020/12/08 00:10:23;;;;;;;86.47;31.33;;;;;;;;;;4361688;33;20655;-86
2020/12/08 00:13:02;;;;;;;83.17;31.73;;;;;;;;;;4349182;33;20147;-86
2020/12/08 00:15:31;;;;;;;82.53;29.63;;;;;;;;;;4348151;33;20151;-87
2020/12/08 00:17:56;;;;;;;84.13;30.23;;;;;;;;;;4348283;33;20155;-87
2020/12/08 00:20:22;;;;;;;76.53;29.83;;;;;;;;;;4348224;33;20226;-87
2020/12/08 00:23:23;;;;;;;84.40;30.97;;;;;;;;;;4348100;33;20489;-87
2020/12/08 00:25:46;;;;;;;84.20;30.30;;;;;;;;;;4358947;33;20159;-87
2020/12/08 00:28:15;;;;;;;82.33;30.20;;;;;;;;;;4347997;33;20497;-87
2020/12/08 00:30:47;;;;;;;69.67;29.40;;;;;;;;;;4347734;33;20155;-87
2020/12/08 00:33:16;;;;;;;79.43;30.50;;;;;;;;;;4348816;33;20187;-87
2020/12/08 00:35:41;;;;;;;74.87;29.57;;;;;;;;;;4348769;33;20151;-87
2020/12/08 00:38:08;;;;;;;78.67;28.97;;;;;;;;;;4348871;33;20539;-87
2020/12/08 00:40:45;;;;;;;72.30;29.27;;;;;;;;;;4348568;33;20508;-87
2020/12/08 00:43:10;;;;;;;77.83;30.40;;;;;;;;;;4348913;33;20177;-87
2020/12/08 00:45:44;;;;;;;70.23;29.60;;;;;;;;;;4348634;33;20159;-87
2020/12/08 00:48:12;;;;;;;68.53;28.37;;;;;;;;;;4348890;33;20536;-87
2020/12/08 00:50:37;;;;;;;70.63;28.67;;;;;;;;;;4348601;33;20607;-86
2020/12/08 00:53:05;;;;;;;66.83;27.67;;;;;;;;;;4348647;33;20159;-86
2020/12/08 00:55:35;;;;;;;74.70;27.97;;;;;;;;;;4348044;33;20628;-87
2020/12/08 00:58:00;;;;;;;63.70;26.63;;;;;;;;;;4349258;33;20478;-87
2020/12/08 01:00:27;;;;;;;64.37;27.77;;;;;;;;;;4362357;32;20201;-87
2020/12/08 01:03:04;;;;;;;68.77;28.37;;;;;;;;;;4350453;33;20158;-86
2020/12/08 01:05:32;;;;;;;66.67;26.40;;;;;;;;;;4359396;33;20237;-87
2020/12/08 01:07:57;;;;;;;67.50;26.07;;;;;;;;;;4350770;33;20217;-86
2020/12/08 01:10:25;;;;;;;63.43;27.27;;;;;;;;;;4348703;33;20178;-86
2020/12/08 01:12:53;;;;;;;66.57;26.87;;;;;;;;;;4349127;33;20222;-87
2020/12/08 01:15:23;;;;;;;63.10;26.53;;;;;;;;;;4348658;33;20599;-87
2020/12/08 01:17:49;;;;;;;62.47;26.47;;;;;;;;;;4348724;33;20533;-86
2020/12/08 01:20:14;;;;;;;66.80;26.63;;;;;;;;;;4348272;33;20167;-86
2020/12/08 01:22:42;;;;;;;66.97;28.23;;;;;;;;;;4348297;33;20155;-86
2020/12/08 01:25:08;;;;;;;62.57;25.10;;;;;;;;;;4348180;33;20213;-87
2020/12/08 01:27:33;;;;;;;62.47;25.63;;;;;;;;;;4348103;33;20220;-86
2020/12/08 01:30:02;;;;;;;63.30;25.50;;;;;;;;;;4348580;33;20674;-86
2020/12/08 01:32:30;;;;;;;56.27;25.07;;;;;;;;;;4347746;33;20182;-86
2020/12/08 01:34:55;;;;;;;59.77;25.60;;;;;;;;;;4348628;33;20158;-86
2020/12/08 01:37:30;;;;;;;62.10;25.27;;;;;;;;;;4347914;33;20246;-86
2020/12/08 01:40:00;;;;;;;58.37;25.40;;;;;;;;;;4348513;33;20589;-86
2020/12/08 01:42:31;;;;;;;59.60;24.97;;;;;;;;;;4348598;33;20238;-87
2020/12/08 01:45:12;;;;;;;;;;;;;;;;;;;;;
2020/12/08 01:47:38;;;;;;;60.53;25.53;;;;;;;;;;4362143;32;20166;-86
2020/12/08 01:50:06;;;;;;;56.93;24.60;;;;;;;;;;4347768;33;20163;-86
2020/12/08 01:52:31;;;;;;;62.43;25.60;;;;;;;;;;4347761;33;20193;-86
2020/12/08 01:55:00;;;;;;;52.80;23.90;;;;;;;;;;4347733;33;20151;-86
2020/12/08 01:57:25;;;;;;;52.93;23.80;;;;;;;;;;4347923;33;20491;-86
2020/12/08 01:59:56;;;;;;;60.23;25.70;;;;;;;;;;4347194;33;20197;-86
2020/12/08 02:02:26;;;;;;;59.97;25.47;;;;;;;;;;4348306;33;20174;-86
2020/12/08 02:04:57;;;;;;;56.17;24.97;;;;;;;;;;4346841;33;20151;-86
2020/12/08 02:07:25;;;;;;;58.30;25.17;;;;;;;;;;4347886;33;20159;-87
2020/12/08 02:09:50;;;;;;;61.43;25.73;;;;;;;;;;4347452;33;20159;-87
2020/12/08 02:12:16;;;;;;;52.57;24.77;;;;;;;;;;4347159;32;20201;-86
2020/12/08 02:14:43;;;;;;;59.03;25.93;;;;;;;;;;4346660;33;20277;-86
2020/12/08 02:17:08;;;;;;;60.70;25.43;;;;;;;;;;4347427;33;20178;-87
2020/12/08 02:19:34;;;;;;;58.33;25.97;;;;;;;;;;4347303;33;20205;-86
2020/12/08 02:21:59;;;;;;;62.33;26.93;;;;;;;;;;4347362;33;20216;-86
2020/12/08 02:24:25;;;;;;;55.03;25.87;;;;;;;;;;4347611;33;20167;-87
2020/12/08 02:26:56;;;;;;;57.97;25.43;;;;;;;;;;4347425;33;20159;-87
2020/12/08 02:29:24;;;;;;;59.77;24.77;;;;;;;;;;4347681;33;20151;-87
2020/12/08 02:31:50;;;;;;;62.43;26.80;;;;;;;;;;4347469;33;20182;-87
2020/12/08 02:34:20;;;;;;;59.07;25.60;;;;;;;;;;4347092;33;20178;-86
2020/12/08 02:36:58;;;;;;;60.87;26.50;;;;;;;;;;4347657;33;20214;-87
2020/12/08 02:39:34;;;;;;;52.80;24.20;;;;;;;;;;4347404;33;20178;-86
2020/12/08 02:42:00;;;;;;;61.30;26.77;;;;;;;;;;4361116;33;20232;-87
2020/12/08 02:44:40;;;;;;;64.00;26.90;;;;;;;;;;4347123;33;20155;-86
2020/12/08 02:47:11;;;;;;;65.27;28.10;;;;;;;;;;4347413;33;20151;-87
2020/12/08 02:49:38;;;;;;;59.33;25.33;;;;;;;;;;4347584;33;20151;-86
2020/12/08 02:52:09;;;;;;;61.40;27.03;;;;;;;;;;4346924;33;20182;-87
2020/12/08 02:54:43;;;;;;;67.13;28.20;;;;;;;;;;4347753;33;20151;-87
2020/12/08 02:57:13;;;;;;;58.37;26.77;;;;;;;;;;4360874;32;20128;-87
2020/12/08 02:59:43;;;;;;;62.60;27.23;;;;;;;;;;4347169;33;20155;-87
2020/12/08 03:02:14;;;;;;;66.77;29.33;;;;;;;;;;4347365;33;20539;-87
2020/12/08 03:04:44;;;;;;;74.27;30.43;;;;;;;;;;4346544;33;20205;-87
2020/12/08 03:07:15;;;;;;;68.87;28.90;;;;;;;;;;4346839;33;20229;-87
2020/12/08 03:09:54;;;;;;;71.43;28.83;;;;;;;;;;4346849;33;20182;-87
2020/12/08 03:12:23;;;;;;;86.77;33.13;;;;;;;;;;4347558;33;20213;-87
2020/12/08 03:14:56;;;;;;;68.50;28.73;;;;;;;;;;4346684;33;20151;-87
2020/12/08 03:17:21;;;;;;;73.80;29.63;;;;;;;;;;4346672;33;20163;-87
2020/12/08 03:19:53;;;;;;;62.83;27.90;;;;;;;;;;4346469;33;20154;-87
2020/12/08 03:22:24;;;;;;;77.20;30.00;;;;;;;;;;4346750;33;20213;-87
2020/12/08 03:25:37;;;;;;;;;;;;;;;;;;;;;
2020/12/08 03:28:11;;;;;;;80.07;28.83;;;;;;;;;;4360382;33;20174;-85
2020/12/08 03:30:48;;;;;;;70.43;28.60;;;;;;;;;;4347540;33;20167;-85
2020/12/08 03:33:13;;;;;;;65.87;27.80;;;;;;;;;;4346840;33;20174;-87
2020/12/08 03:35:40;;;;;;;76.97;29.80;;;;;;;;;;4360049;33;20216;-87
2020/12/08 03:38:08;;;;;;;80.67;29.70;;;;;;;;;;4346928;33;20175;-87
2020/12/08 03:40:36;;;;;;;82.13;29.90;;;;;;;;;;4346425;33;20221;-87
2020/12/08 03:43:02;;;;;;;98.83;32.30;;;;;;;;;;4360083;33;20132;-87
2020/12/08 03:45:27;;;;;;;98.13;34.23;;;;;;;;;;4346410;33;20150;-87
2020/12/08 03:47:55;;;;;;;88.03;33.50;;;;;;;;;;4346495;33;20465;-87
2020/12/08 03:50:20;;;;;;;81.27;31.70;;;;;;;;;;4346804;33;20163;-88
2020/12/08 03:52:48;;;;;;;80.67;31.23;;;;;;;;;;4347031;33;20236;-87
2020/12/08 03:55:13;;;;;;;85.67;32.00;;;;;;;;;;4346724;33;20159;-87
2020/12/08 03:57:53;;;;;;;80.17;32.70;;;;;;;;;;4346501;33;20214;-87
2020/12/08 04:00:23;;;;;;;88.73;33.20;;;;;;;;;;4346066;33;20212;-87
2020/12/08 04:03:00;;;;;;;75.90;31.93;;;;;;;;;;4346551;33;20209;-87
2020/12/08 04:08:31;;;;;;;84.03;33.57;;;;;;;;;;4357031;33;20152;-88
2020/12/08 04:11:19;;;;;;;79.50;32.17;;;;;;;;;;4347028;33;20268;-87
2020/12/08 04:13:47;;;;;;;84.77;33.30;;;;;;;;;;4347333;33;20155;-87
2020/12/08 04:16:18;;;;;;;95.80;35.33;;;;;;;;;;4346772;33;20194;-87
2020/12/08 04:18:44;;;;;;;94.20;35.53;;;;;;;;;;4352090;33;20185;-87
2020/12/08 04:21:09;;;;;;;94.83;35.77;;;;;;;;;;4355095;33;20194;-87
2020/12/08 04:23:40;;;;;;;90.73;35.33;;;;;;;;;;4354760;33;20607;-87
2020/12/08 04:26:14;;;;;;;97.87;36.87;;;;;;;;;;4355171;33;20174;-87
2020/12/08 04:28:46;;;;;;;88.80;34.10;;;;;;;;;;4355492;33;20212;-88
2020/12/08 04:31:23;;;;;;;90.87;33.63;;;;;;;;;;4354207;33;20212;-87
2020/12/08 04:34:06;;;;;;;95.37;35.20;;;;;;;;;;4369625;33;20202;-87
2020/12/08 04:36:35;;;;;;;89.90;35.60;;;;;;;;;;4355999;33;20218;-88
2020/12/08 04:39:03;;;;;;;97.10;35.47;;;;;;;;;;4349490;33;20199;-86
2020/12/08 04:41:28;;;;;;;87.30;32.50;;;;;;;;;;4349549;33;20170;-87
2020/12/08 04:43:56;;;;;;;95.23;33.83;;;;;;;;;;4349213;33;20250;-87
2020/12/08 04:46:26;;;;;;;98.60;34.70;;;;;;;;;;4349385;33;20159;-87
2020/12/08 04:48:52;;;;;;;80.10;32.63;;;;;;;;;;4350222;33;20205;-88
2020/12/08 04:51:31;;;;;;;99.73;35.97;;;;;;;;;;4362874;33;20139;-88
2020/12/08 04:54:00;;;;;;;75.93;32.17;;;;;;;;;;4349285;33;20155;-87
2020/12/08 04:56:28;;;;;;;77.07;31.73;;;;;;;;;;4349805;33;20618;-88
2020/12/08 04:59:06;;;;;;;82.33;31.93;;;;;;;;;;4348708;33;20660;-88
2020/12/08 05:01:42;;;;;;;81.70;31.80;;;;;;;;;;4348570;33;20194;-88
2020/12/08 05:04:15;;;;;;;82.80;32.17;;;;;;;;;;4348573;33;20214;-89
2020/12/08 05:06:56;;;;;;;;;;;;;;;;;;;;;
2020/12/08 05:09:51;;;;;;;80.17;32.43;;;;;;;;;;4362921;32;20142;-88
2020/12/08 05:12:20;;;;;;;84.90;32.80;;;;;;;;;;4348508;32;20160;-88
2020/12/08 05:14:57;;;;;;;71.60;29.10;;;;;;;;;;4348560;33;20158;-88
2020/12/08 05:17:31;;;;;;;77.90;31.20;;;;;;;;;;4362825;33;20160;-88
2020/12/08 05:20:11;;;;;;;71.67;29.87;;;;;;;;;;4348191;33;20170;-88
2020/12/08 05:22:54;;;;;;;76.17;30.90;;;;;;;;;;4362518;32;20139;-88
2020/12/08 05:25:24;;;;;;;66.27;29.43;;;;;;;;;;4348427;33;20146;-87
2020/12/08 05:27:55;;;;;;;68.53;28.70;;;;;;;;;;4348888;33;20240;-87
2020/12/08 05:30:26;;;;;;;64.10;26.57;;;;;;;;;;4362318;32;20131;-87
2020/12/08 05:33:03;;;;;;;67.77;28.97;;;;;;;;;;4361959;32;20151;-87
2020/12/08 05:35:37;;;;;;;71.37;28.77;;;;;;;;;;4348686;33;20165;-87
2020/12/08 05:38:06;;;;;;;66.87;29.20;;;;;;;;;;4349345;33;20139;-87
2020/12/08 05:40:37;;;;;;;71.10;27.90;;;;;;;;;;4348553;33;20152;-87
2020/12/08 05:43:03;;;;;;;58.37;27.67;;;;;;;;;;4348253;33;20143;-87
2020/12/08 05:45:31;;;;;;;60.70;26.50;;;;;;;;;;4348064;33;20276;-86
2020/12/08 05:47:59;;;;;;;58.70;26.57;;;;;;;;;;4347327;33;20155;-87
2020/12/08 05:50:33;;;;;;;63.80;27.60;;;;;;;;;;4348030;33;20185;-87
2020/12/08 05:53:11;;;;;;;52.27;24.50;;;;;;;;;;4347959;33;20150;-86
2020/12/08 05:55:39;;;;;;;53.67;24.53;;;;;;;;;;4349134;33;20142;-87
2020/12/08 05:58:09;;;;;;;53.10;25.17;;;;;;;;;;4347828;33;20154;-87
2020/12/08 06:00:37;;;;;;;51.37;24.33;;;;;;;;;;4348258;33;20160;-87
2020/12/08 06:03:09;;;;;;;52.60;23.03;;;;;;;;;;4347815;33;20151;-87
2020/12/08 06:05:34;;;;;;;48.07;22.13;;;;;;;;;;4348238;33;20155;-87
2020/12/08 06:08:11;;;;;;;46.07;22.53;;;;;;;;;;4347744;33;20224;-87
2020/12/08 06:10:46;;;;;;;46.90;23.00;;;;;;;;;;4348530;33;20163;-87
2020/12/08 06:13:22;;;;;;;45.37;22.53;;;;;;;;;;4347774;33;20257;-87
2020/12/08 06:15:53;;;;;;;44.27;21.10;;;;;;;;;;4347994;33;20177;-87
2020/12/08 06:18:28;;;;;;;45.20;21.33;;;;;;;;;;4347980;33;20159;-88
2020/12/08 06:20:57;;;;;;;43.53;20.43;;;;;;;;;;4347662;33;20155;-88
2020/12/08 06:23:41;;;;;;;43.47;21.53;;;;;;;;;;4347399;33;20155;-87
2020/12/08 06:26:14;;;;;;;46.00;21.37;;;;;;;;;;4348139;33;20177;-88
2020/12/08 06:28:39;;;;;;;51.07;22.40;;;;;;;;;;4347514;33;20215;-88
2020/12/08 06:31:08;;;;;;;38.07;20.13;;;;;;;;;;4347469;33;20150;-88
2020/12/08 06:34:19;;;;;;;43.40;21.70;;;;;;;;;;4347636;33;20642;-88
2020/12/08 06:36:53;;;;;;;45.30;21.43;;;;;;;;;;4347673;33;20181;-87
2020/12/08 06:39:20;;;;;;;52.27;23.13;;;;;;;;;;4347633;33;20175;-87
2020/12/08 06:41:48;;;;;;;47.63;22.23;;;;;;;;;;4347165;33;20164;-87
2020/12/08 06:44:16;;;;;;;55.40;24.50;;;;;;;;;;4347148;33;20178;-87
2020/12/08 06:47:01;;;;;;;50.10;22.13;;;;;;;;;;4347673;33;20151;-87
2020/12/08 06:49:39;;;;;;;61.00;27.33;;;;;;;;;;4347004;33;20155;-86
2020/12/08 06:52:08;;;;;;;48.73;22.60;;;;;;;;;;4348441;33;20147;-87
2020/12/08 06:54:36;;;;;;;48.83;21.87;;;;;;;;;;4346857;33;20151;-87
2020/12/08 06:57:06;;;;;;;44.67;21.67;;;;;;;;;;4347217;33;20202;-87
2020/12/08 06:59:34;;;;;;;43.27;22.37;;;;;;;;;;4346932;33;20588;-86
2020/12/08 07:04:48;;;;;;;51.07;22.27;;;;;;;;;;4353020;33;20147;-87
2020/12/08 07:07:13;;;;;;;51.03;23.03;;;;;;;;;;4350040;33;20158;-87
2020/12/08 07:09:44;;;;;;;53.67;23.63;;;;;;;;;;4355840;33;20233;-85
2020/12/08 07:12:29;;;;;;;53.67;23.97;;;;;;;;;;4353370;33;20191;-87
2020/12/08 07:15:16;;;;;;;50.20;22.67;;;;;;;;;;4346416;33;20148;-87
2020/12/08 07:17:56;;;;;;;47.13;23.10;;;;;;;;;;4346276;33;20209;-85
2020/12/08 07:20:50;;;;;;;52.53;24.60;;;;;;;;;;4345763;33;20180;-89
2020/12/08 07:23:23;;;;;;;58.90;25.07;;;;;;;;;;4360135;33;20182;-87
2020/12/08 07:25:58;;;;;;;47.73;22.47;;;;;;;;;;4347030;33;20147;-88
2020/12/08 07:28:38;;;;;;;50.67;22.87;;;;;;;;;;4346970;33;20170;-87
2020/12/08 07:31:30;;;;;;;45.10;21.57;;;;;;;;;;4341206;33;20154;-88
2020/12/08 07:34:26;;;;;;;47.13;22.90;;;;;;;;;;4360651;32;20150;-87
2020/12/08 07:37:03;;;;;;;51.90;24.60;;;;;;;;;;4347156;33;20155;-87
2020/12/08 07:39:36;;;;;;;47.03;22.20;;;;;;;;;;4346257;33;20154;-88
2020/12/08 07:42:18;;;;;;;55.20;22.90;;;;;;;;;;4346985;33;20150;-87
2020/12/08 07:44:59;;;;;;;47.83;23.40;;;;;;;;;;4346408;33;20147;-88
2020/12/08 07:47:27;;;;;;;56.53;25.50;;;;;;;;;;4346002;33;20151;-86
2020/12/08 07:49:53;;;;;;;52.20;24.47;;;;;;;;;;4346331;33;20162;-86
2020/12/08 07:52:21;;;;;;;52.67;25.07;;;;;;;;;;4346598;33;20565;-87
2020/12/08 07:54:52;;;;;;;53.07;24.87;;;;;;;;;;4346450;33;20214;-87
2020/12/08 07:57:23;;;;;;;50.27;24.47;;;;;;;;;;4346755;33;20175;-85
2020/12/08 07:59:52;;;;;;;51.30;24.13;;;;;;;;;;4346871;33;20201;-87
2020/12/08 08:02:25;;;;;;;51.57;24.27;;;;;;;;;;4346354;33;20150;-86
2020/12/08 08:05:01;;;;;;;54.43;25.47;;;;;;;;;;4346537;33;20619;-87
2020/12/08 08:07:47;;;;;;;51.37;24.13;;;;;;;;;;4354771;33;20150;-86
2020/12/08 08:10:18;;;;;;;50.80;22.87;;;;;;;;;;4370430;32;20166;-88
2020/12/08 08:12:46;;;;;;;48.30;23.63;;;;;;;;;;4350030;33;20163;-88
2020/12/08 08:15:11;;;;;;;48.93;23.07;;;;;;;;;;4349741;33;20159;-88
2020/12/08 08:17:40;;;;;;;47.20;23.57;;;;;;;;;;4350215;33;20326;-89
2020/12/08 08:20:08;;;;;;;51.57;23.53;;;;;;;;;;4349166;33;20147;-88
2020/12/08 08:22:41;;;;;;;47.40;23.90;;;;;;;;;;4349598;33;20217;-88
2020/12/08 08:25:19;;;;;;;48.40;24.03;;;;;;;;;;4349161;33;20585;-89
2020/12/08 08:27:56;;;;;;;58.50;25.87;;;;;;;;;;4349730;33;20192;-88
2020/12/08 08:30:22;;;;;;;46.67;23.60;;;;;;;;;;4350202;33;20174;-88
2020/12/08 08:32:50;;;;;;;48.77;23.23;;;;;;;;;;4349627;33;20527;-89
2020/12/08 08:35:19;;;;;;;47.83;24.50;;;;;;;;;;4362322;32;20154;-89
2020/12/08 08:38:05;;;;;;;50.37;24.20;;;;;;;;;;4349017;33;20602;-89
2020/12/08 08:40:45;;;;;;;50.67;24.57;;;;;;;;;;4349641;33;20658;-87
2020/12/08 08:43:55;;;;;;;51.60;23.60;;;;;;;;;;4361373;32;20596;-87
2020/12/08 08:46:43;;;;;;;48.40;23.87;;;;;;;;;;4376485;32;20162;-87
2020/12/08 08:49:14;;;;;;;48.97;23.40;;;;;;;;;;4363589;32;20181;-87
2020/12/08 08:51:39;;;;;;;47.23;22.17;;;;;;;;;;4364039;32;20151;-86
2020/12/08 08:54:50;;;;;;;48.97;24.47;;;;;;;;;;4363232;32;20690;-85
2020/12/08 08:57:27;;;;;;;44.90;22.20;;;;;;;;;;4313952;33;20166;-87
2020/12/08 08:59:53;;;;;;;50.17;24.23;;;;;;;;;;4363636;32;20169;-87
2020/12/08 09:02:21;;;;;;;46.80;22.87;;;;;;;;;;4364033;32;20147;-86
2020/12/08 09:04:51;;;;;;;52.57;24.00;;;;;;;;;;4351239;32;20185;-88
2020/12/08 09:07:22;;;;;;;49.67;25.53;;;;;;;;;;4363447;32;20167;-87
2020/12/08 09:09:48;;;;;;;52.10;24.83;;;;;;;;;;4363454;32;20189;-86
2020/12/08 09:12:38;;;;;;;46.97;23.13;;;;;;;;;;4350572;32;20154;-88
2020/12/08 09:15:44;;;;;;;45.67;22.43;;;;;;;;;;4363351;32;20499;-86
2020/12/08 09:18:21;;;;;;;47.83;23.47;;;;;;;;;;4362933;32;20177;-86
2020/12/08 09:20:52;;;;;;;46.33;24.37;;;;;;;;;;4363540;32;20484;-87
2020/12/08 09:26:13;;;;;;;44.47;21.93;;;;;;;;;;4370756;32;20181;-88
2020/12/08 09:28:47;;;;;;;50.90;24.53;;;;;;;;;;4363099;32;20487;-86
2020/12/08 09:31:15;;;;;;;42.30;22.47;;;;;;;;;;4362750;32;20219;-86
2020/12/08 09:33:46;;;;;;;40.87;22.37;;;;;;;;;;4362783;32;20212;-85
2020/12/08 09:36:14;;;;;;;40.53;21.17;;;;;;;;;;4357178;33;20151;-86
2020/12/08 09:38:51;;;;;;;41.10;22.30;;;;;;;;;;4348034;32;20187;-84
2020/12/08 09:41:33;;;;;;;42.30;21.97;;;;;;;;;;4358326;32;20184;-87
2020/12/08 09:44:02;;;;;;;40.03;21.60;;;;;;;;;;4370868;32;20159;-84
2020/12/08 09:46:31;;;;;;;38.77;20.67;;;;;;;;;;4370017;32;20154;-87
2020/12/08 09:49:10;;;;;;;44.07;22.50;;;;;;;;;;4376630;32;20212;-87
2020/12/08 09:51:55;;;;;;;37.63;20.27;;;;;;;;;;4375155;32;20186;-87
2020/12/08 09:54:23;;;;;;;38.03;21.13;;;;;;;;;;4363074;32;20505;-87
2020/12/08 09:57:30;;;;;;;38.50;20.30;;;;;;;;;;4364857;32;20147;-86
2020/12/08 09:59:40;;;;;;;40.37;21.00;;;;;;;;;;4372904;32;20158;-87
2020/12/08 10:02:11;;;;;;;41.80;22.13;;;;;;;;;;4368122;32;20181;-87
2020/12/08 10:04:42;;;;;;;38.77;21.37;;;;;;;;;;4366416;32;20187;-87
2020/12/08 10:07:09;;;;;;;41.07;21.50;;;;;;;;;;4367335;32;20165;-86
2020/12/08 10:09:35;;;;;;;40.27;20.20;;;;;;;;;;4364188;32;20155;-87
2020/12/08 10:12:15;;;;;;;38.20;19.43;;;;;;;;;;4362870;32;20212;-87
2020/12/08 10:14:58;;;;;;;37.00;19.87;;;;;;;;;;4360283;32;20526;-87
2020/12/08 10:17:35;;;;;;;31.57;18.63;;;;;;;;;;4347921;33;20561;-87
2020/12/08 10:20:10;;;;;;;33.30;18.97;;;;;;;;;;4346538;33;20657;-86
2020/12/08 10:22:57;;;;;;;37.30;20.80;;;;;;;;;;4361993;32;20178;-86
2020/12/08 10:25:27;;;;;;;34.97;20.17;;;;;;;;;;4347605;33;20159;-86
2020/12/08 10:28:01;;;;;;;36.23;20.03;;;;;;;;;;4347692;33;20185;-87
2020/12/08 10:30:29;;;;;;;36.37;19.90;;;;;;;;;;4347875;33;20182;-88
2020/12/08 10:33:00;;;;;;;36.07;19.20;;;;;;;;;;4347265;33;20577;-86
2020/12/08 10:35:45;;;;;;;32.67;19.00;;;;;;;;;;4346411;33;20667;-86
2020/12/08 10:38:19;;;;;;;31.27;18.70;;;;;;;;;;4347587;33;20240;-86
2020/12/08 10:47:37;;;;;;;39.47;19.93;;;;;;;;;;4361629;32;20173;-86
2020/12/08 10:50:21;;;;;;;32.40;20.03;;;;;;;;;;4332800;33;20241;-87
2020/12/08 10:52:49;;;;;;;34.73;18.03;;;;;;;;;;4347881;33;20151;-86
2020/12/08 10:55:29;;;;;;;34.80;18.93;;;;;;;;;;4347401;33;20160;-86
2020/12/08 10:57:54;;;;;;;31.70;18.30;;;;;;;;;;4347604;33;20146;-86
2020/12/08 11:00:20;;;;;;;28.60;18.93;;;;;;;;;;4347261;33;20244;-87
2020/12/08 11:02:50;;;;;;;30.27;17.97;;;;;;;;;;4347078;33;20147;-86
2020/12/08 11:05:17;;;;;;;37.10;19.60;;;;;;;;;;4346490;33;20159;-88
2020/12/08 11:07:43;;;;;;;32.17;18.30;;;;;;;;;;4346617;33;20151;-76
2020/12/08 11:10:08;;;;;;;31.87;17.40;;;;;;;;;;4346415;33;20483;-82
2020/12/08 11:12:42;;;;;;;28.80;16.27;;;;;;;;;;4334701;33;20213;-82
2020/12/08 11:15:08;;;;;;;28.07;16.03;;;;;;;;;;4346683;33;20233;-82
2020/12/08 11:17:37;;;;;;;29.00;16.20;;;;;;;;;;4346168;33;20592;-81
2020/12/08 11:20:03;;;;;;;31.10;17.20;;;;;;;;;;4346572;33;20151;-82
2020/12/08 11:22:32;;;;;;;30.53;15.77;;;;;;;;;;4346205;33;20159;-82
2020/12/08 11:24:58;;;;;;;30.23;16.73;;;;;;;;;;4346460;33;20155;-81
2020/12/08 11:27:24;;;;;;;32.57;17.20;;;;;;;;;;4360227;33;20523;-81
2020/12/08 11:29:49;;;;;;;33.50;17.50;;;;;;;;;;4346186;33;20159;-79
2020/12/08 11:32:16;;;;;;;29.80;17.03;;;;;;;;;;4345880;33;20619;-81
2020/12/08 11:34:43;;;;;;;27.97;16.07;;;;;;;;;;4346524;33;20144;-81
2020/12/08 11:37:08;;;;;;;28.73;17.30;;;;;;;;;;4346426;33;20494;-82
2020/12/08 11:39:37;;;;;;;25.10;16.23;;;;;;;;;;4346906;33;20155;-81
2020/12/08 11:42:03;;;;;;;31.85;18.15;;;;;;;;;;4347942;33;20181;-81
2020/12/08 11:44:29;;;;;;;27.43;15.03;;;;;;;;;;4346845;33;20535;-81
2020/12/08 11:46:58;;;;;;;28.73;15.63;;;;;;;;;;4349188;33;20237;-81
2020/12/08 11:49:23;;;;;;;28.50;16.77;;;;;;;;;;4349316;33;20189;-82
2020/12/08 11:51:54;;;;;;;24.57;16.33;;;;;;;;;;4349088;33;20159;-82
2020/12/08 11:54:25;;;;;;;31.27;17.37;;;;;;;;;;4349281;33;20163;-82
2020/12/08 11:57:08;;;;;;;29.47;18.47;;;;;;;;;;4362110;32;20531;-82
2020/12/08 11:59:33;;;;;;;28.50;17.00;;;;;;;;;;4349179;33;20171;-82
2020/12/08 12:01:59;;;;;;;34.20;18.00;;;;;;;;;;4336358;33;20598;-81
2020/12/08 12:04:28;;;;;;;30.30;17.00;;;;;;;;;;4349476;33;20234;-81
2020/12/08 12:06:53;;;;;;;32.60;17.67;;;;;;;;;;4336994;33;20163;-82
2020/12/08 12:09:19;;;;;;;32.90;19.57;;;;;;;;;;4348743;32;20580;-81
2020/12/08 12:11:44;;;;;;;29.53;17.33;;;;;;;;;;4349070;33;20159;-81
2020/12/08 12:14:11;;;;;;;34.27;19.10;;;;;;;;;;4348819;33;20190;-82
2020/12/08 12:16:37;;;;;;;31.37;18.37;;;;;;;;;;4348354;33;20178;-82
2020/12/08 12:19:05;;;;;;;32.00;17.83;;;;;;;;;;4336406;33;20155;-82
2020/12/08 12:21:34;;;;;;;30.53;17.97;;;;;;;;;;4336725;33;20654;-81
2020/12/08 12:23:59;;;;;;;33.20;19.10;;;;;;;;;;4336162;33;20581;-82
2020/12/08 12:26:25;;;;;;;33.50;17.93;;;;;;;;;;4357118;32;20201;-81
2020/12/08 12:28:52;;;;;;;30.33;16.70;;;;;;;;;;4363355;32;20516;-81
2020/12/08 12:31:20;;;;;;;30.77;16.60;;;;;;;;;;4363345;32;20155;-82
2020/12/08 12:33:49;;;;;;;32.77;17.30;;;;;;;;;;4363274;32;20247;-81
2020/12/08 12:36:19;;;;;;;28.67;15.93;;;;;;;;;;4363825;32;20159;-82
2020/12/08 12:38:48;;;;;;;28.43;17.10;;;;;;;;;;4363593;32;20147;-81
2020/12/08 12:41:14;;;;;;;29.03;16.53;;;;;;;;;;4361959;32;20156;-81
2020/12/08 12:43:39;;;;;;;29.43;17.30;;;;;;;;;;4363463;32;20246;-81
2020/12/08 12:46:07;;;;;;;33.27;18.63;;;;;;;;;;4363364;32;20150;-80
2020/12/08 12:48:35;;;;;;;30.17;17.20;;;;;;;;;;4363043;32;20150;-81
2020/12/08 12:51:02;;;;;;;28.53;16.17;;;;;;;;;;4350645;32;20202;-79
2020/12/08 12:53:33;;;;;;;29.47;17.80;;;;;;;;;;4376637;32;20135;-80
2020/12/08 12:55:58;;;;;;;28.37;16.93;;;;;;;;;;4362994;32;20147;-80
2020/12/08 12:58:56;;;;;;;30.40;17.07;;;;;;;;;;4360696;32;20220;-79
2020/12/08 13:01:25;;;;;;;28.40;16.43;;;;;;;;;;4316633;33;20202;-79
2020/12/08 13:04:02;;;;;;;30.67;16.77;;;;;;;;;;4341182;32;20241;-80
2020/12/08 13:06:28;;;;;;;35.23;17.70;;;;;;;;;;4363258;32;20162;-80
2020/12/08 13:08:53;;;;;;;28.23;16.90;;;;;;;;;;4362953;32;20243;-80
2020/12/08 13:11:19;;;;;;;31.83;17.43;;;;;;;;;;4363327;32;20488;-81
2020/12/08 13:13:44;;;;;;;37.50;17.63;;;;;;;;;;4362998;32;20242;-80
2020/12/08 13:16:11;;;;;;;28.67;17.70;;;;;;;;;;4365962;32;20666;-80
2020/12/08 13:18:39;;;;;;;29.67;16.97;;;;;;;;;;4365095;32;20150;-79
2020/12/08 13:21:07;;;;;;;27.13;16.67;;;;;;;;;;4364978;32;20185;-80
2020/12/08 13:23:33;;;;;;;30.23;17.87;;;;;;;;;;4377444;32;20576;-80
2020/12/08 13:26:01;;;;;;;28.17;16.23;;;;;;;;;;4377548;32;20211;-80
2020/12/08 13:28:27;;;;;;;34.57;17.10;;;;;;;;;;4370189;32;20273;-79
2020/12/08 13:30:57;;;;;;;30.17;16.83;;;;;;;;;;4362542;32;20158;-80
2020/12/08 13:33:31;;;;;;;28.93;17.70;;;;;;;;;;4362664;32;20158;-79
2020/12/08 13:35:59;;;;;;;26.30;16.33;;;;;;;;;;4362541;32;20208;-79
2020/12/08 13:38:30;;;;;;;30.03;16.57;;;;;;;;;;4362308;32;20155;-79
2020/12/08 13:40:58;;;;;;;27.03;15.77;;;;;;;;;;4376486;32;20123;-80
2020/12/08 13:43:26;;;;;;;27.48;16.17;;;;;;;;;;4363010;32;20155;-80
2020/12/08 13:45:52;;;;;;;24.77;15.35;;;;;;;;;;4375494;32;20154;-80
2020/12/08 13:48:18;;;;;;;29.53;16.43;;;;;;;;;;4374462;32;20154;-81
2020/12/08 13:50:46;;;;;;;29.70;16.30;;;;;;;;;;4357941;32;20155;-80
2020/12/08 13:53:15;;;;;;;29.13;16.10;;;;;;;;;;4358272;32;20250;-80
2020/12/08 13:55:44;;;;;;;27.20;15.30;;;;;;;;;;4359393;32;20177;-81
2020/12/08 13:58:27;;;;;;;30.63;16.53;;;;;;;;;;4365655;32;20480;-81
2020/12/08 14:00:54;;;;;;;26.90;16.67;;;;;;;;;;4362413;32;20233;-81
2020/12/08 14:03:24;;;;;;;28.20;16.90;;;;;;;;;;4362282;32;20201;-81
2020/12/08 14:05:58;;;;;;;29.07;16.87;;;;;;;;;;4362018;32;20155;-80
2020/12/08 14:08:26;;;;;;;33.53;19.07;;;;;;;;;;4361848;32;20575;-80
2020/12/08 14:10:51;;;;;;;28.97;17.37;;;;;;;;;;4361510;32;20202;-81
2020/12/08 14:13:19;;;;;;;35.27;18.27;;;;;;;;;;4361649;32;20233;-81
2020/12/08 14:15:50;;;;;;;39.90;17.80;;;;;;;;;;4361935;32;20150;-82
2020/12/08 14:18:16;;;;;;;30.60;16.57;;;;;;;;;;4361391;32;20189;-79
2020/12/08 14:20:41;;;;;;;30.23;16.70;;;;;;;;;;4361516;32;20148;-80
2020/12/08 14:23:06;;;;;;;35.33;16.83;;;;;;;;;;4361920;32;20216;-80
2020/12/08 14:25:45;;;;;;;32.57;16.83;;;;;;;;;;4361697;32;20221;-81
2020/12/08 14:28:30;;;;;;;31.97;16.93;;;;;;;;;;4356392;33;20282;-81
2020/12/08 14:30:58;;;;;;;30.03;16.10;;;;;;;;;;4361216;32;20525;-80
2020/12/08 14:33:23;;;;;;;29.93;17.70;;;;;;;;;;4371673;32;20220;-81
2020/12/08 14:35:49;;;;;;;30.70;16.77;;;;;;;;;;4376422;32;20186;-81
2020/12/08 14:38:14;;;;;;;28.63;17.07;;;;;;;;;;4376424;32;20232;-81
2020/12/08 14:40:40;;;;;;;28.23;16.87;;;;;;;;;;4376494;32;20210;-81
2020/12/08 14:43:08;;;;;;;30.70;19.43;;;;;;;;;;4375047;32;20158;-81
2020/12/08 14:45:35;;;;;;;30.60;17.10;;;;;;;;;;4368018;32;20233;-80
2020/12/08 14:48:03;;;;;;;37.77;18.27;;;;;;;;;;4362580;32;20194;-80
2020/12/08 14:50:31;;;;;;;33.33;17.33;;;;;;;;;;4361126;32;20576;-80
2020/12/08 14:53:26;;;;;;;34.00;19.80;;;;;;;;;;4360699;32;20163;-80
2020/12/08 14:56:12;;;;;;;37.73;18.30;;;;;;;;;;4373147;32;20169;-80
2020/12/08 14:58:43;;;;;;;29.77;18.00;;;;;;;;;;4355371;32;20155;-80
2020/12/08 15:01:26;;;;;;;33.40;17.83;;;;;;;;;;4375043;32;20220;-79